Terminal Aerodrome Forecast
Issued by NWS

Home | Current Version | Previous Version | Text Only | Print | Product List | Glossary On
Versions: 1 2 3 4 5 6 7 8 9 10 11 12 13 14 15 16 17 18 19 20 21
000
FTUS43 KDMX 280520
TAFFOD
TAF
KFOD 280520Z 2806/2906 VRB04KT P6SM SCT050
     FM281000 33006KT P6SM OVC025
     FM282000 35006KT P6SM BKN060=

USA.gov is the U.S. government's official web portal to all federal, state and local government web resources and services.